Time;durP1;ratioP1;P1;durP2;ratioP2;P2;SDS_P1;SDS_P2;PMS_P1;PMS_P2;Temp;Humidity;BMP_temperature;BMP_pressure;BME280_temperature;BME280_humidity;BME280_pressure;Samples;Min_cycle;Max_cycle;Signal;HPM_P1;HPM_P2
2021/12/23 00:01:48;;;;;;;17.02;6.95;;;-0.70;99.90;;;;;;4635951;30;20070;-86
2021/12/23 00:04:14;;;;;;;14.73;7.40;;;-0.70;99.90;;;;;;4646966;30;20051;-85
2021/12/23 00:06:41;;;;;;;16.30;7.65;;;-0.70;99.90;;;;;;4635350;30;20042;-85
2021/12/23 00:09:07;;;;;;;18.67;8.05;;;-0.70;99.90;;;;;;4647691;30;20051;-85
2021/12/23 00:11:33;;;;;;;16.02;7.75;;;-0.70;99.90;;;;;;4635013;30;20059;-86
2021/12/23 00:14:02;;;;;;;13.38;6.07;;;-0.70;99.90;;;;;;4636506;30;20074;-86
2021/12/23 00:16:42;;;;;;;16.02;7.80;;;-0.70;99.90;;;;;;4660345;30;20090;-86
2021/12/23 00:19:34;;;;;;;14.23;7.40;;;-0.60;99.90;;;;;;4650165;30;20133;-85
2021/12/23 00:24:45;;;;;;;13.57;6.68;;;-0.60;99.90;;;;;;4646761;30;20538;-85
2021/12/23 00:27:12;;;;;;;17.00;7.78;;;-0.60;99.90;;;;;;4647732;30;20078;-86
2021/12/23 00:29:39;;;;;;;14.30;7.75;;;-0.60;99.90;;;;;;4647749;30;20061;-85
2021/12/23 00:32:07;;;;;;;15.77;7.38;;;-0.60;99.90;;;;;;4633522;30;20069;-85
2021/12/23 00:34:33;;;;;;;16.60;8.02;;;-0.60;99.90;;;;;;4634049;30;20106;-85
2021/12/23 00:37:00;;;;;;;15.90;7.78;;;-0.60;99.90;;;;;;4633289;30;20059;-85
2021/12/23 00:39:28;;;;;;;15.25;7.93;;;-0.60;99.90;;;;;;4631824;30;20426;-85
2021/12/23 00:41:55;;;;;;;14.93;7.10;;;-0.60;99.90;;;;;;4647978;30;20051;-86
2021/12/23 00:44:21;;;;;;;16.80;8.05;;;-0.60;99.90;;;;;;4647666;30;20073;-85
2021/12/23 00:46:46;;;;;;;15.13;7.57;;;-0.60;99.90;;;;;;4646918;30;20043;-85
2021/12/23 00:49:12;;;;;;;13.45;7.10;;;-0.60;99.90;;;;;;4648998;30;20046;-85
2021/12/23 00:51:38;;;;;;;16.05;8.20;;;-0.60;99.90;;;;;;4649371;30;20078;-86
2021/12/23 00:54:04;;;;;;;16.33;7.07;;;-0.60;99.90;;;;;;4644359;30;20558;-85
2021/12/23 00:56:37;;;;;;;15.73;8.13;;;-0.60;99.90;;;;;;4649548;30;20130;-85
2021/12/23 00:59:06;;;;;;;;;;;-0.60;99.90;;;;;;4636776;30;20050;-85
2021/12/23 01:01:32;;;;;;;15.35;7.20;;;-0.60;99.90;;;;;;4634474;30;20414;-85
2021/12/23 01:03:57;;;;;;;15.45;7.60;;;-0.60;99.90;;;;;;4650256;30;20129;-86
2021/12/23 01:06:23;;;;;;;15.27;8.05;;;-0.60;99.90;;;;;;4648640;30;20418;-86
2021/12/23 01:08:49;;;;;;;15.07;8.40;;;-0.60;99.90;;;;;;4648481;30;20157;-85
2021/12/23 01:11:15;;;;;;;14.27;7.72;;;-0.60;99.90;;;;;;4646974;30;20041;-86
2021/12/23 01:13:47;;;;;;;16.77;7.95;;;-0.60;99.90;;;;;;4631218;30;20470;-85
2021/12/23 01:16:24;;;;;;;13.18;6.80;;;-0.50;99.90;;;;;;4647722;30;20082;-85
2021/12/23 01:18:54;;;;;;;17.05;8.48;;;-0.50;99.90;;;;;;4632380;30;20471;-86
2021/12/23 01:21:20;;;;;;;14.60;7.63;;;-0.50;99.90;;;;;;4647297;30;20066;-85
2021/12/23 01:23:49;;;;;;;16.42;8.43;;;-0.50;99.90;;;;;;4632904;30;20141;-85
2021/12/23 01:26:20;;;;;;;14.82;7.65;;;-0.50;99.90;;;;;;4649417;30;20043;-85
2021/12/23 01:28:49;;;;;;;14.60;7.95;;;-0.50;99.90;;;;;;4647041;30;20134;-85
2021/12/23 01:31:14;;;;;;;18.58;8.20;;;-0.50;99.90;;;;;;4648121;30;20570;-85
2021/12/23 01:33:41;;;;;;;13.77;7.35;;;-0.60;99.90;;;;;;4646751;30;20118;-85
2021/12/23 01:36:06;;;;;;;19.48;8.57;;;-0.50;99.90;;;;;;4634233;30;20046;-86
2021/12/23 01:38:32;;;;;;;15.25;8.18;;;-0.50;99.90;;;;;;4649167;30;20046;-85
2021/12/23 01:40:57;;;;;;;14.68;8.38;;;-0.50;99.90;;;;;;4646008;30;20062;-86
2021/12/23 01:43:23;;;;;;;14.15;8.10;;;-0.50;99.90;;;;;;4631967;30;20107;-85
2021/12/23 01:45:49;;;;;;;17.45;8.00;;;-0.50;99.90;;;;;;4634024;30;20118;-85
2021/12/23 01:48:17;;;;;;;16.92;7.82;;;-0.60;99.90;;;;;;4632067;30;20053;-85
2021/12/23 01:50:43;;;;;;;15.48;7.80;;;-0.50;99.90;;;;;;4647046;30;20542;-85
2021/12/23 01:53:09;;;;;;;16.98;8.20;;;-0.50;99.90;;;;;;4649188;30;20510;-85
2021/12/23 01:55:36;;;;;;;15.85;8.48;;;-0.50;99.90;;;;;;4628917;30;20054;-86
2021/12/23 01:58:04;;;;;;;16.42;8.38;;;-0.50;99.90;;;;;;4631514;30;20053;-85
2021/12/23 02:00:33;;;;;;;16.05;7.82;;;-0.50;99.90;;;;;;4631948;30;20054;-85
2021/12/23 02:03:00;;;;;;;16.65;8.73;;;-0.40;99.90;;;;;;4644696;30;20046;-85
2021/12/23 02:05:28;;;;;;;17.52;8.50;;;-0.40;99.90;;;;;;4649029;30;20046;-85
2021/12/23 02:07:54;;;;;;;16.25;8.85;;;-0.50;99.90;;;;;;4629387;30;20042;-85
2021/12/23 02:10:20;;;;;;;19.83;9.55;;;-0.40;99.90;;;;;;4643940;30;20818;-85
2021/12/23 02:12:47;;;;;;;13.85;7.07;;;-0.40;99.90;;;;;;4643996;30;20043;-85
2021/12/23 02:15:14;;;;;;;18.48;8.70;;;-0.40;99.90;;;;;;4632361;30;20066;-85
2021/12/23 02:17:41;;;;;;;15.88;8.07;;;-0.40;99.90;;;;;;4642776;30;20065;-85
2021/12/23 02:20:09;;;;;;;16.75;8.25;;;-0.40;99.90;;;;;;4648863;30;20051;-85
2021/12/23 02:22:35;;;;;;;17.30;8.77;;;-0.40;99.90;;;;;;4635319;30;20053;-85
2021/12/23 02:25:02;;;;;;;17.65;8.90;;;-0.40;99.90;;;;;;4643983;30;20042;-85
2021/12/23 02:27:27;;;;;;;16.55;8.80;;;-0.40;99.90;;;;;;4633993;30;20043;-85
2021/12/23 02:29:53;;;;;;;16.52;7.97;;;-0.40;99.90;;;;;;4632102;30;20058;-85
2021/12/23 02:32:19;;;;;;;15.95;7.97;;;-0.40;99.90;;;;;;4643398;30;20051;-85
2021/12/23 02:34:44;;;;;;;17.10;8.10;;;-0.40;99.90;;;;;;4644918;30;20166;-85
2021/12/23 02:37:10;;;;;;;14.43;8.45;;;-0.40;99.90;;;;;;4617622;30;20122;-85
2021/12/23 02:39:35;;;;;;;15.73;8.25;;;-0.30;99.90;;;;;;4630182;30;20050;-85
2021/12/23 02:42:03;;;;;;;14.80;7.10;;;-0.30;99.90;;;;;;4646550;30;20047;-85
2021/12/23 02:44:28;;;;;;;17.52;7.90;;;-0.40;99.90;;;;;;4630538;30;20086;-85
2021/12/23 02:46:54;;;;;;;15.23;8.32;;;-0.40;99.90;;;;;;4635895;30;20043;-85
2021/12/23 02:49:20;;;;;;;16.73;8.63;;;-0.40;99.90;;;;;;4632449;30;20218;-86
2021/12/23 02:51:45;;;;;;;19.38;9.18;;;-0.40;99.90;;;;;;4646645;30;20058;-85
2021/12/23 02:54:11;;;;;;;16.35;8.88;;;-0.40;99.90;;;;;;4616333;30;20050;-85
2021/12/23 02:56:39;;;;;;;17.30;8.60;;;-0.30;99.90;;;;;;4645717;30;20050;-85
2021/12/23 02:59:04;;;;;;;12.32;6.13;;;-0.30;99.90;;;;;;4631927;30;20046;-85
2021/12/23 03:01:30;;;;;;;17.55;9.07;;;-0.30;99.90;;;;;;4647269;30;20049;-85
2021/12/23 03:03:56;;;;;;;17.95;8.98;;;-0.30;99.90;;;;;;4631109;30;20053;-84
2021/12/23 03:06:22;;;;;;;17.48;9.05;;;-0.30;99.90;;;;;;4646211;30;20039;-85
2021/12/23 03:08:54;;;;;;;16.20;8.98;;;-0.30;99.90;;;;;;4651582;30;20058;-85
2021/12/23 03:11:22;;;;;;;16.80;9.50;;;-0.30;99.90;;;;;;4633699;30;20588;-86
2021/12/23 03:13:49;;;;;;;17.95;8.20;;;-0.30;99.90;;;;;;4630548;30;20121;-85
2021/12/23 03:16:19;;;;;;;18.98;9.15;;;-0.30;99.90;;;;;;4632140;30;20050;-85
2021/12/23 03:18:45;;;;;;;17.25;8.18;;;-0.30;99.90;;;;;;4631330;30;20054;-85
2021/12/23 03:21:11;;;;;;;17.10;8.98;;;-0.30;99.90;;;;;;4629241;30;20082;-85
2021/12/23 03:23:37;;;;;;;18.50;9.32;;;-0.30;99.90;;;;;;4642765;30;20074;-85
2021/12/23 03:26:03;;;;;;;17.67;8.88;;;-0.20;99.90;;;;;;4629075;30;20513;-85
2021/12/23 03:28:29;;;;;;;20.67;9.40;;;-0.30;99.90;;;;;;4644072;30;20039;-85
2021/12/23 03:30:56;;;;;;;15.35;8.63;;;-0.30;99.90;;;;;;4617309;30;20106;-85
2021/12/23 03:33:21;;;;;;;19.83;10.23;;;-0.30;99.90;;;;;;4647733;30;20067;-85
2021/12/23 03:35:48;;;;;;;16.70;9.15;;;-0.30;99.90;;;;;;4649424;30;20054;-85
2021/12/23 03:38:15;;;;;;;19.15;8.75;;;-0.20;99.90;;;;;;4630230;30;20530;-85
2021/12/23 03:40:41;;;;;;;18.73;10.00;;;-0.20;99.90;;;;;;4648337;30;20544;-85
2021/12/23 03:43:07;;;;;;;18.42;9.07;;;-0.20;99.90;;;;;;4650343;30;20082;-85
2021/12/23 03:45:33;;;;;;;17.75;8.13;;;-0.20;99.90;;;;;;4647227;30;20081;-85
2021/12/23 03:47:58;;;;;;;16.95;8.63;;;-0.20;99.90;;;;;;4649890;30;20047;-85
2021/12/23 03:50:25;;;;;;;18.67;9.15;;;-0.20;99.90;;;;;;4631993;30;20058;-85
2021/12/23 03:52:52;;;;;;;19.70;9.90;;;-0.20;99.90;;;;;;4646379;30;20054;-85
2021/12/23 03:55:18;;;;;;;18.98;9.25;;;-0.20;99.90;;;;;;4632364;30;20521;-85
2021/12/23 03:57:46;;;;;;;22.38;9.95;;;-0.10;99.90;;;;;;4646488;30;20081;-85
2021/12/23 04:00:14;;;;;;;20.33;10.07;;;-0.10;99.90;;;;;;4630918;30;20105;-84
2021/12/23 04:02:40;;;;;;;19.27;9.73;;;-0.10;99.90;;;;;;4646276;30;20055;-85
2021/12/23 04:05:06;;;;;;;19.50;9.60;;;-0.10;99.90;;;;;;4645667;30;20051;-85
2021/12/23 04:07:38;;;;;;;18.55;8.52;;;-0.10;99.90;;;;;;4635348;30;20170;-85
2021/12/23 04:10:08;;;;;;;18.87;9.77;;;-0.10;99.90;;;;;;4644322;30;20514;-85
2021/12/23 04:12:34;;;;;;;19.90;9.13;;;-0.10;99.90;;;;;;4641658;30;20055;-85
2021/12/23 04:14:59;;;;;;;17.13;9.38;;;-0.10;99.90;;;;;;4646632;30;20433;-85
2021/12/23 04:17:25;;;;;;;14.15;7.88;;;-0.10;99.90;;;;;;4648647;30;20085;-85
2021/12/23 04:19:51;;;;;;;20.58;9.70;;;-0.10;99.90;;;;;;4634707;30;20058;-85
2021/12/23 04:22:17;;;;;;;20.05;9.50;;;-0.10;99.90;;;;;;4648831;30;20043;-86
2021/12/23 04:24:43;;;;;;;17.40;9.18;;;-0.10;99.90;;;;;;4646928;30;20081;-85
2021/12/23 04:27:09;;;;;;;17.92;9.77;;;-0.10;99.90;;;;;;4647340;30;20096;-85
2021/12/23 04:29:34;;;;;;;21.42;9.25;;;0.00;99.90;;;;;;4648510;30;20082;-85
2021/12/23 04:32:01;;;;;;;17.83;8.98;;;-0.10;99.90;;;;;;4647602;30;20582;-85
2021/12/23 04:34:27;;;;;;;21.35;10.02;;;0.00;99.90;;;;;;4619511;30;20097;-85
2021/12/23 04:36:53;;;;;;;18.80;10.02;;;0.00;99.90;;;;;;4633635;30;20058;-85
2021/12/23 04:39:19;;;;;;;19.15;10.23;;;0.00;99.90;;;;;;4648546;30;20043;-85
2021/12/23 04:41:45;;;;;;;16.08;9.05;;;0.00;99.90;;;;;;4653381;30;20422;-85
2021/12/23 04:44:10;;;;;;;18.98;9.25;;;0.00;99.90;;;;;;4648913;30;20091;-85
2021/12/23 04:46:36;;;;;;;18.65;9.77;;;0.00;99.90;;;;;;4634328;30;20202;-85
2021/12/23 04:49:02;;;;;;;18.70;9.70;;;0.00;99.90;;;;;;4633168;30;20086;-85
2021/12/23 04:51:27;;;;;;;20.67;9.57;;;0.00;99.90;;;;;;4651171;30;20128;-85
2021/12/23 04:53:53;;;;;;;18.75;10.02;;;0.10;99.90;;;;;;4652426;30;20610;-85
2021/12/23 04:56:19;;;;;;;17.83;9.80;;;0.00;99.90;;;;;;4638954;30;20062;-85
2021/12/23 04:58:45;;;;;;;17.42;9.25;;;0.10;99.90;;;;;;4652695;30;20066;-85
2021/12/23 05:01:20;;;;;;;16.35;9.07;;;0.00;99.90;;;;;;4625018;30;20069;-85
2021/12/23 05:03:47;;;;;;;17.58;9.50;;;0.10;99.90;;;;;;4647829;30;20038;-85
2021/12/23 05:06:16;;;;;;;19.75;9.68;;;0.00;99.90;;;;;;4645296;30;20053;-86
2021/12/23 05:08:42;;;;;;;20.13;10.48;;;0.00;99.90;;;;;;4634420;30;20065;-85
2021/12/23 05:11:08;;;;;;;19.88;10.10;;;0.00;99.90;;;;;;4648198;30;20054;-85
2021/12/23 05:13:33;;;;;;;16.92;8.60;;;0.00;99.90;;;;;;4648538;30;20072;-85
2021/12/23 05:15:59;;;;;;;17.05;8.93;;;0.00;99.90;;;;;;4632303;30;20074;-85
2021/12/23 05:18:24;;;;;;;17.83;9.82;;;0.00;99.90;;;;;;4650618;30;20137;-85
2021/12/23 05:20:51;;;;;;;18.95;9.43;;;0.00;99.90;;;;;;4618121;30;20050;-85
2021/12/23 05:23:17;;;;;;;22.73;9.73;;;0.00;99.90;;;;;;4646394;30;20058;-85
2021/12/23 05:25:42;;;;;;;16.55;8.65;;;0.00;99.90;;;;;;4649577;30;20055;-85
2021/12/23 05:28:08;;;;;;;18.27;9.32;;;0.00;99.90;;;;;;4645656;30;20070;-86
2021/12/23 05:30:34;;;;;;;22.05;9.77;;;0.00;99.90;;;;;;4646147;30;20058;-85
2021/12/23 05:32:59;;;;;;;16.70;9.02;;;0.00;99.90;;;;;;4646206;30;20043;-85
2021/12/23 05:35:25;;;;;;;15.70;9.32;;;0.00;99.90;;;;;;4638090;30;20057;-85
2021/12/23 05:37:52;;;;;;;13.93;8.40;;;0.00;99.90;;;;;;4644693;30;20051;-85
2021/12/23 05:40:20;;;;;;;17.88;9.02;;;0.10;99.90;;;;;;4645329;30;20109;-84
2021/12/23 05:42:46;;;;;;;19.92;10.23;;;0.10;99.90;;;;;;4646381;30;20502;-84
2021/12/23 05:45:13;;;;;;;19.52;10.30;;;0.10;99.90;;;;;;4649483;30;20124;-85
2021/12/23 05:47:40;;;;;;;19.15;10.38;;;0.10;99.90;;;;;;4635013;30;20046;-85
2021/12/23 05:50:07;;;;;;;19.80;10.13;;;0.10;99.90;;;;;;4645887;30;20058;-86
2021/12/23 05:52:32;;;;;;;20.48;10.23;;;0.10;99.90;;;;;;4631909;30;20471;-85
2021/12/23 05:54:58;;;;;;;17.85;9.48;;;0.10;99.90;;;;;;4618513;30;20054;-85
2021/12/23 05:57:24;;;;;;;21.50;10.27;;;0.10;99.90;;;;;;4635265;30;20055;-85
2021/12/23 05:59:50;;;;;;;18.08;10.13;;;0.20;99.90;;;;;;4645504;30;20054;-85
2021/12/23 06:02:16;;;;;;;20.98;10.00;;;0.10;99.90;;;;;;4648327;30;20038;-85
2021/12/23 06:04:41;;;;;;;18.88;9.95;;;0.10;99.90;;;;;;4631931;30;20081;-85
2021/12/23 06:07:07;;;;;;;19.75;9.45;;;0.10;99.90;;;;;;4639962;30;20051;-85
2021/12/23 06:09:32;;;;;;;18.95;9.85;;;0.10;99.90;;;;;;4648745;30;20414;-85
2021/12/23 06:11:58;;;;;;;21.52;10.80;;;0.10;99.90;;;;;;4648055;30;20043;-85
2021/12/23 06:14:24;;;;;;;19.33;8.95;;;0.10;99.90;;;;;;4628184;30;20055;-84
2021/12/23 06:16:49;;;;;;;19.65;9.35;;;0.10;99.90;;;;;;4637465;30;20056;-84
2021/12/23 06:19:15;;;;;;;19.58;10.10;;;0.10;99.90;;;;;;4632218;30;20051;-85
2021/12/23 06:21:43;;;;;;;20.73;10.55;;;0.10;99.90;;;;;;4635505;30;20042;-85
2021/12/23 06:24:09;;;;;;;19.25;9.35;;;0.20;99.90;;;;;;4617931;30;20047;-85
2021/12/23 06:26:35;;;;;;;20.08;9.68;;;0.20;99.90;;;;;;4627530;30;20086;-85
2021/12/23 06:29:00;;;;;;;19.73;9.88;;;0.20;99.90;;;;;;4633748;30;20068;-85
2021/12/23 06:31:26;;;;;;;18.70;10.27;;;0.20;99.90;;;;;;4634712;30;20073;-85
2021/12/23 06:33:52;;;;;;;19.48;9.20;;;0.20;99.90;;;;;;4631653;30;20054;-85
2021/12/23 06:36:17;;;;;;;19.80;10.00;;;0.20;99.90;;;;;;4624799;30;20066;-85
2021/12/23 06:38:44;;;;;;;18.35;9.88;;;0.20;99.90;;;;;;4636627;30;20412;-85
2021/12/23 06:41:11;;;;;;;19.92;9.95;;;0.20;99.90;;;;;;4624524;30;20182;-85
2021/12/23 06:43:37;;;;;;;22.17;10.02;;;0.20;99.90;;;;;;4633923;30;20062;-84
2021/12/23 06:46:03;;;;;;;19.38;10.30;;;0.20;99.90;;;;;;4636622;30;20047;-85
2021/12/23 06:48:31;;;;;;;19.50;10.02;;;0.10;99.90;;;;;;4637101;30;20043;-85
2021/12/23 06:50:57;;;;;;;22.23;11.35;;;0.20;99.90;;;;;;4635008;30;20585;-84
2021/12/23 06:53:24;;;;;;;21.05;9.90;;;0.20;99.90;;;;;;4636305;30;20110;-85
2021/12/23 06:55:52;;;;;;;19.63;9.63;;;0.20;99.90;;;;;;4640110;30;20035;-85
2021/12/23 06:58:18;;;;;;;20.65;10.77;;;0.20;99.90;;;;;;4632703;30;20078;-85
2021/12/23 07:00:45;;;;;;;22.58;10.07;;;0.20;99.90;;;;;;4614127;30;20047;-85
2021/12/23 07:03:10;;;;;;;20.00;11.52;;;0.20;99.90;;;;;;4631710;30;20047;-85
2021/12/23 07:05:36;;;;;;;19.77;10.32;;;0.20;99.90;;;;;;4641612;30;20496;-85
2021/12/23 07:08:23;;;;;;;18.98;10.13;;;0.20;99.90;;;;;;4618569;30;20467;-85
2021/12/23 07:10:49;;;;;;;20.70;10.75;;;0.20;99.90;;;;;;4640353;30;20055;-85
2021/12/23 07:13:15;;;;;;;15.75;8.98;;;0.20;99.90;;;;;;4633646;30;20057;-84
2021/12/23 07:15:40;;;;;;;20.23;10.45;;;0.20;99.90;;;;;;4628346;30;20102;-85
2021/12/23 07:18:06;;;;;;;18.42;10.52;;;0.20;99.90;;;;;;4622315;30;20366;-84
2021/12/23 07:20:31;;;;;;;21.13;11.02;;;0.20;99.90;;;;;;4633921;30;20054;-85
2021/12/23 07:22:57;;;;;;;19.75;10.68;;;0.10;99.90;;;;;;4638810;30;20043;-85
2021/12/23 07:25:23;;;;;;;21.45;11.07;;;0.10;99.90;;;;;;4618298;30;20047;-85
2021/12/23 07:27:48;;;;;;;18.80;11.00;;;0.10;99.90;;;;;;4636161;30;20042;-85
2021/12/23 07:30:18;;;;;;;19.95;10.65;;;0.10;99.90;;;;;;4622043;30;20051;-85
2021/12/23 07:32:44;;;;;;;24.08;11.98;;;0.20;99.90;;;;;;4618269;30;20070;-85
2021/12/23 07:35:11;;;;;;;23.60;10.60;;;0.10;99.90;;;;;;4630177;30;20055;-85
2021/12/23 07:37:37;;;;;;;22.75;10.35;;;0.10;99.90;;;;;;4619810;30;20431;-85
2021/12/23 07:40:05;;;;;;;22.40;12.60;;;0.10;99.90;;;;;;4616963;31;20058;-85
2021/12/23 07:42:32;;;;;;;20.40;10.25;;;0.10;99.90;;;;;;4633169;30;20101;-85
2021/12/23 07:44:58;;;;;;;24.42;12.63;;;0.10;99.90;;;;;;4645201;30;20055;-85
2021/12/23 07:47:24;;;;;;;22.27;11.45;;;0.10;99.90;;;;;;4645479;30;20055;-85
2021/12/23 07:49:50;;;;;;;28.48;13.60;;;0.10;99.90;;;;;;4635580;30;20060;-84
2021/12/23 07:52:16;;;;;;;28.08;14.77;;;0.10;99.90;;;;;;4638797;30;20128;-85
2021/12/23 07:54:41;;;;;;;24.77;11.70;;;0.10;99.90;;;;;;4627717;30;20133;-85
2021/12/23 07:57:07;;;;;;;26.98;13.45;;;0.10;99.90;;;;;;4653866;30;20047;-85
2021/12/23 07:59:33;;;;;;;28.80;13.80;;;0.20;99.90;;;;;;4636163;30;20046;-85
2021/12/23 08:01:59;;;;;;;31.25;14.93;;;0.20;99.90;;;;;;4648780;30;20085;-85
2021/12/23 08:04:25;;;;;;;31.40;14.02;;;0.10;99.90;;;;;;4645802;30;20062;-85
2021/12/23 08:06:55;;;;;;;19.35;8.05;;;0.10;99.90;;;;;;4645483;30;20065;-85
2021/12/23 08:09:22;;;;;;;28.70;14.50;;;0.20;99.90;;;;;;4642930;30;20097;-86
2021/12/23 08:12:00;;;;;;;26.58;11.98;;;0.10;99.90;;;;;;4646558;30;20071;-85
2021/12/23 08:14:27;;;;;;;30.92;15.65;;;0.20;99.90;;;;;;4649238;30;20137;-84
2021/12/23 08:16:55;;;;;;;27.83;14.00;;;0.20;99.90;;;;;;4629429;30;20055;-85
2021/12/23 08:19:20;;;;;;;30.52;14.35;;;0.20;99.90;;;;;;4645644;30;20123;-85
2021/12/23 08:21:46;;;;;;;23.08;11.80;;;0.20;99.90;;;;;;4647757;30;20208;-85
2021/12/23 08:24:12;;;;;;;25.15;10.18;;;0.20;99.90;;;;;;4643167;30;20047;-85
2021/12/23 08:26:42;;;;;;;36.97;15.82;;;0.20;99.90;;;;;;4631664;30;20043;-85
2021/12/23 08:29:08;;;;;;;28.73;13.77;;;0.30;99.90;;;;;;4630898;30;20107;-85
2021/12/23 08:31:34;;;;;;;34.30;15.98;;;0.20;99.90;;;;;;4635352;30;20411;-85
2021/12/23 08:34:00;;;;;;;29.38;13.68;;;0.20;99.90;;;;;;4644300;30;20058;-85
2021/12/23 08:36:25;;;;;;;26.10;10.93;;;0.20;99.90;;;;;;4636169;30;20047;-85
2021/12/23 08:38:51;;;;;;;35.22;16.17;;;0.20;99.90;;;;;;4645707;30;20531;-85
2021/12/23 08:41:17;;;;;;;35.00;16.35;;;0.20;99.90;;;;;;4632028;30;20059;-85
2021/12/23 08:43:44;;;;;;;36.25;15.82;;;0.10;99.90;;;;;;4633457;30;20051;-85
2021/12/23 09:40:23;;;;;;;32.13;13.65;;;0.30;99.90;;;;;;6226069;22;1211871;-83
2021/12/23 09:42:53;;;;;;;37.25;17.80;;;0.30;99.90;;;;;;6252612;22;20019;-83
2021/12/23 09:45:19;;;;;;;40.17;17.85;;;0.40;99.90;;;;;;6252255;22;20026;-83
2021/12/23 09:47:48;;;;;;;40.17;17.73;;;0.40;99.90;;;;;;6209330;23;20016;-83
2021/12/23 09:50:18;;;;;;;40.80;18.70;;;0.40;99.90;;;;;;6222193;23;20019;-84
2021/12/23 09:52:47;;;;;;;36.67;17.30;;;0.40;99.90;;;;;;6199154;23;20042;-84
2021/12/23 09:55:17;;;;;;;36.22;17.27;;;0.40;99.90;;;;;;6221968;23;20154;-83
2021/12/23 09:57:46;;;;;;;35.17;16.48;;;0.40;99.90;;;;;;6225473;23;20118;-83
2021/12/23 10:00:12;;;;;;;33.97;16.92;;;0.40;99.90;;;;;;6150560;23;20017;-84
2021/12/23 10:02:41;;;;;;;43.53;18.20;;;0.40;99.90;;;;;;6213180;23;20020;-83
2021/12/23 10:05:28;;;;;;;40.45;18.02;;;0.40;99.90;;;;;;6163715;23;20055;-84
2021/12/23 10:07:55;;;;;;;34.58;16.02;;;0.40;99.90;;;;;;6213805;23;20016;-84
2021/12/23 10:10:50;;;;;;;39.85;16.83;;;0.40;99.90;;;;;;6164800;23;20142;-84
2021/12/23 10:37:14;;;;;;;36.10;16.55;;;0.50;99.90;;;;;;6155095;23;20111;-83
2021/12/23 10:39:45;;;;;;;38.40;16.08;;;0.50;99.90;;;;;;6123889;23;20029;-83
2021/12/23 10:42:16;;;;;;;39.55;17.58;;;0.50;99.90;;;;;;6149560;23;20018;-83
2021/12/23 10:44:56;;;;;;;37.92;15.93;;;0.50;99.90;;;;;;6199424;23;20060;-83
2021/12/23 10:47:57;;;;;;;40.00;18.30;;;0.60;99.90;;;;;;6149484;23;20017;-83
2021/12/23 10:50:37;;;;;;;37.28;15.57;;;0.60;99.90;;;;;;6146032;23;20013;-83
2021/12/23 10:53:08;;;;;;;38.42;17.27;;;0.60;99.90;;;;;;6149387;23;20009;-83
2021/12/23 10:58:19;;;;;;;36.42;16.25;;;0.60;99.90;;;;;;6200342;23;20022;-83
2021/12/23 11:00:52;;;;;;;40.00;17.85;;;0.60;99.90;;;;;;6150194;23;20499;-83
2021/12/23 11:03:36;;;;;;;39.78;17.30;;;0.60;99.90;;;;;;6149480;23;20096;-83
2021/12/23 11:06:18;;;;;;;41.97;16.38;;;0.70;99.90;;;;;;6149832;23;20228;-83
2021/12/23 11:08:59;;;;;;;38.30;16.40;;;0.70;99.90;;;;;;6149130;23;20014;-83
2021/12/23 11:28:20;;;;;;;43.58;18.95;;;0.70;99.90;;;;;;6201122;23;20021;-83
2021/12/23 11:43:51;;;;;;;40.00;17.10;;;0.80;99.90;;;;;;6120575;23;20021;-83
2021/12/23 11:46:33;;;;;;;43.72;17.65;;;0.80;99.90;;;;;;6119666;23;20049;-83
2021/12/23 11:49:02;;;;;;;43.80;17.98;;;0.80;99.90;;;;;;6118708;23;20025;-85
2021/12/23 11:53:56;;;;;;;42.20;17.95;;;0.80;99.90;;;;;;6118097;23;20084;-83
2021/12/23 11:56:24;;;;;;;43.45;18.48;;;0.80;99.90;;;;;;6095722;23;20048;-84
2021/12/23 11:58:51;;;;;;;41.35;18.98;;;0.80;99.90;;;;;;6120311;23;20033;-84
2021/12/23 12:01:29;;;;;;;41.70;16.52;;;0.80;99.90;;;;;;6095005;23;20022;-84
2021/12/23 12:04:03;;;;;;;46.80;18.92;;;0.80;99.90;;;;;;6119380;23;20021;-84
2021/12/23 12:06:40;;;;;;;43.78;17.90;;;0.80;99.90;;;;;;6120159;23;20021;-84
2021/12/23 12:09:14;;;;;;;40.15;17.67;;;0.80;99.90;;;;;;6094977;23;20021;-84
2021/12/23 12:11:41;;;;;;;39.58;18.63;;;0.80;99.90;;;;;;6121120;23;20071;-84
2021/12/23 12:14:34;;;;;;;40.78;17.05;;;0.80;99.90;;;;;;6095188;23;20504;-84
2021/12/23 12:17:24;;;;;;;38.30;16.85;;;0.80;99.90;;;;;;6096709;23;20014;-84
2021/12/23 12:20:07;;;;;;;38.92;16.77;;;0.80;99.90;;;;;;6120736;23;20468;-84
2021/12/23 12:22:47;;;;;;;40.67;16.50;;;0.90;99.90;;;;;;6119129;23;20479;-84
2021/12/23 12:25:40;;;;;;;35.70;16.75;;;0.90;99.90;;;;;;6118695;23;20073;-84
2021/12/23 12:28:06;;;;;;;34.25;14.88;;;0.90;99.90;;;;;;6095479;23;20029;-84
2021/12/23 12:30:45;;;;;;;29.10;13.88;;;0.90;99.90;;;;;;6121440;23;20097;-84
2021/12/23 12:33:25;;;;;;;32.83;13.35;;;0.90;99.90;;;;;;6115940;23;20100;-84
2021/12/23 12:36:03;;;;;;;31.08;13.18;;;0.90;99.90;;;;;;6118726;23;20017;-84
2021/12/23 12:38:32;;;;;;;39.70;15.93;;;0.90;99.90;;;;;;6124871;23;20354;-84
2021/12/23 12:41:00;;;;;;;40.10;17.58;;;0.90;99.90;;;;;;6148678;23;20456;-84
2021/12/23 12:43:44;;;;;;;41.72;17.85;;;0.90;99.90;;;;;;6148169;23;20013;-84
2021/12/23 12:46:22;;;;;;;38.67;15.55;;;0.90;99.90;;;;;;6147711;23;20053;-84
2021/12/23 12:49:00;;;;;;;33.60;15.10;;;0.90;99.90;;;;;;6147121;23;20013;-84
2021/12/23 12:51:32;;;;;;;46.53;18.80;;;0.90;99.90;;;;;;6122856;23;20014;-84
2021/12/23 12:54:05;;;;;;;42.50;16.80;;;0.90;99.90;;;;;;6122154;23;20009;-84
2021/12/23 12:56:47;;;;;;;40.00;17.67;;;0.90;99.90;;;;;;6149100;23;20013;-84
2021/12/23 12:59:14;;;;;;;38.33;17.33;;;1.00;99.90;;;;;;6149660;23;20439;-84
2021/12/23 13:01:42;;;;;;;43.50;17.60;;;0.90;99.90;;;;;;6146943;23;20071;-84
2021/12/23 13:04:43;;;;;;;39.80;17.33;;;1.00;99.90;;;;;;6124744;23;20040;-84
2021/12/23 13:07:39;;;;;;;42.42;18.42;;;1.00;99.90;;;;;;6146104;23;20010;-84
2021/12/23 13:10:08;;;;;;;35.30;16.33;;;1.00;99.90;;;;;;6166997;23;20444;-84
2021/12/23 13:12:44;;;;;;;35.15;16.02;;;1.00;99.90;;;;;;6146634;23;20088;-84
2021/12/23 13:15:17;;;;;;;38.08;16.92;;;1.10;99.90;;;;;;6121283;23;20018;-84
2021/12/23 13:17:44;;;;;;;;;;;1.10;99.90;;;;;;6171484;23;20451;-84
2021/12/23 13:20:10;;;;;;;39.92;17.10;;;1.10;99.90;;;;;;6197214;23;20014;-84
2021/12/23 13:22:37;;;;;;;41.90;17.75;;;1.10;99.90;;;;;;6148021;23;20025;-84
2021/12/23 13:25:04;;;;;;;40.88;17.33;;;1.10;99.90;;;;;;6121015;23;20021;-84
2021/12/23 13:27:31;;;;;;;38.78;17.67;;;1.10;99.90;;;;;;6147530;23;20466;-84
2021/12/23 13:30:11;;;;;;;40.20;17.40;;;1.10;99.90;;;;;;6146991;23;20020;-84
2021/12/23 13:32:37;;;;;;;43.03;17.00;;;1.20;99.90;;;;;;6146760;23;20061;-84
2021/12/23 13:35:12;;;;;;;39.60;17.38;;;1.20;99.90;;;;;;6146840;23;20387;-84
2021/12/23 13:37:46;;;;;;;36.90;16.92;;;1.30;99.90;;;;;;6122702;23;20341;-84
2021/12/23 13:40:24;;;;;;;43.55;18.50;;;1.30;99.90;;;;;;6146254;23;20033;-84
2021/12/23 13:42:50;;;;;;;41.35;18.60;;;1.30;99.90;;;;;;6196610;23;20021;-84
2021/12/23 13:45:16;;;;;;;38.28;16.63;;;1.30;99.90;;;;;;6147199;23;20010;-84
2021/12/23 13:47:41;;;;;;;38.22;16.27;;;1.40;99.90;;;;;;6146996;23;20132;-83
2021/12/23 13:50:08;;;;;;;39.00;17.58;;;1.40;99.90;;;;;;6146284;23;20020;-83
2021/12/23 13:52:42;;;;;;;41.20;16.90;;;1.40;99.90;;;;;;6146828;23;20093;-83
2021/12/23 13:55:11;;;;;;;38.55;18.45;;;1.40;99.90;;;;;;6146633;23;20037;-83
2021/12/23 13:57:41;;;;;;;46.78;19.27;;;1.40;99.90;;;;;;6147789;23;20096;-83
2021/12/23 14:00:21;;;;;;;41.35;18.45;;;1.40;99.90;;;;;;6148441;23;20582;-83
2021/12/23 14:02:51;;;;;;;40.72;16.75;;;1.50;99.90;;;;;;6147801;23;20024;-83
2021/12/23 14:05:17;;;;;;;43.67;17.85;;;1.40;99.90;;;;;;6147879;23;20021;-83
2021/12/23 14:07:45;;;;;;;40.45;16.35;;;1.50;99.90;;;;;;6124718;23;20056;-83
2021/12/23 14:10:16;;;;;;;42.53;17.75;;;1.40;99.90;;;;;;6125056;23;20013;-83
2021/12/23 14:12:44;;;;;;;40.60;16.50;;;1.50;99.90;;;;;;6150826;23;20022;-83
2021/12/23 14:15:12;;;;;;;37.75;17.35;;;1.40;99.90;;;;;;6126174;23;20072;-84
2021/12/23 14:17:41;;;;;;;38.58;17.85;;;1.40;99.90;;;;;;6149790;23;20425;-85
2021/12/23 14:23:12;;;;;;;36.47;16.50;;;1.40;99.90;;;;;;6120266;23;20481;-84
2021/12/23 14:25:49;;;;;;;42.45;12.30;;;1.40;99.90;;;;;;6149380;23;20021;-84
2021/12/23 14:28:18;;;;;;;39.03;17.73;;;1.40;99.90;;;;;;6124352;23;20024;-84
2021/12/23 14:30:51;;;;;;;38.78;16.48;;;1.40;99.90;;;;;;6125411;23;20009;-84
2021/12/23 14:33:37;;;;;;;38.47;17.60;;;1.50;99.90;;;;;;6125629;23;20048;-84
2021/12/23 14:36:15;;;;;;;36.72;16.17;;;1.50;99.90;;;;;;6150473;23;20026;-84
2021/12/23 14:38:44;;;;;;;37.70;16.90;;;1.50;99.90;;;;;;6149787;23;20063;-84
2021/12/23 14:41:21;;;;;;;38.97;16.65;;;1.40;99.90;;;;;;6149827;23;20068;-84
2021/12/23 14:44:05;;;;;;;37.42;18.13;;;1.50;99.90;;;;;;6150495;23;20014;-84
2021/12/23 14:46:30;;;;;;;37.65;17.67;;;1.40;99.90;;;;;;6149970;23;20057;-84